KOLY/OLY METAR and TAF weather

Enter ICAO airport designator
Station Type Date Time Source
KOLY METAR 2020/01/27 16:55 UTC NOAA

KOLY 271655Z AUTO 29008KT 3SM BR OVC007 M02/M02 A3005 RMK AO2 T10171017


Station Type Date Time Source
KOLY Decoded METAR 2020/01/27 16:55 UTC NOAA

Olney-Noble, Olney-Noble Airport, IL, United States (KOLY) 38-43-19N 088-10-35W
Jan 27, 2020 - 11:55 AM EST / 2020.01.27 1655 UTC
Wind: from the WNW (290 degrees) at 9 MPH (8 KT):0
Visibility: 3 mile(s):0
Sky conditions: overcast
Weather: mist
Temperature: 28.9 F (-1.7 C)
Windchill: 21 F (-6 C):1
Dew Point: 28.9 F (-1.7 C)
Relative Humidity: 100%
Pressure (altimeter): 30.05 in. Hg (1017 hPa)
ob: KOLY 271655Z AUTO 29008KT 3SM BR OVC007 M02/M02 A3005 RMK AO2 T10171017
cycle: 17

Station Type Date Time Source
KOLY TAF UTC NOAA

Error!

Example: see airport list